Meteo Giornale » Osservazioni meteo Stati Uniti (USA) » Muir Army Air Fld-Indiantown
ore: 13:55 - Osservazioni Meteo Muir Army Air Fld-Indiantown
Lat. 40° 26' N Lon. 76° 34' W Alt. 149 metri s.l.m.
33 °C
Nuvoloso
Temp. 24 Ore
21 °C
33 °C
Ovest/Sud-Ovest
14.8 Km/h
Dew point 22 °C
Umidità 52 %
Visibilità 10 Km
Il sole sorge alle ore 06:33
Il sole tramonta alle ore 19:38
| Data e Ora | Cielo e Fenomeni | T °C | DP °C | Um. % | Pres. hPa | Vis. km | Vento km/h | |
|---|---|---|---|---|---|---|---|---|
| Oggi h: 13:55 | Nuvoloso | 33 | 22 | 52 | 1014 | 10 | O/SO 14.8 | |
| Oggi h: 12:55 | Nuvoloso | 30 | 23 | 66 | 1014 | 10 | O/SO 14.8 | |
| Oggi h: 11:55 | Molto Nuvoloso | 29 | 24 | 74 | 1015 | 10 | SO 14.8 | |
| Oggi h: 10:55 | Molto Nuvoloso | 26 | 23 | 83 | 1015 | 11 | O/SO 11.1 | |
| Oggi h: 10:37 | Foschia | 25 | 23 | 88 | 1015 | 10 | O/SO 11.1 | |
| Oggi h: 09:55 | Pioggia | 25 | 22 | 83 | 1015 | 11 | N 0 | |
| Oggi h: 09:48 | Pioggia | 25 | 22 | 83 | 1015 | 11 | O/SO 7.4 | |
| Oggi h: 08:55 | Foschia | 24 | 22 | 88 | 1016 | 8 | N 0 | |
| Oggi h: 08:28 | Foschia | 22 | 21 | 94 | 1016 | 5 | N 0 | |
| Oggi h: 07:55 | Foschia | 21 | 20 | 94 | 1016 | 6 | N 0 | |
| Oggi h: 07:42 | Foschia | 21 | 21 | 100 | 1016 | 6 | N 0 | |
| Oggi h: 07:14 | Pioggia Foschia | 21 | 20 | 94 | 1015 | 6 | N 0 | |
| Oggi h: 06:55 | Foschia | 21 | 20 | 94 | 1016 | 6 | N 0 | |
| Oggi h: 06:26 | Foschia | 21 | 20 | 94 | 1016 | 6 | N 0 | |
| Oggi h: 06:12 | Foschia | 21 | 20 | 94 | 1016 | 6 | N 0 | |
| Oggi h: 05:56 | Foschia | 21 | 20 | 94 | 1015 | 5 | N 0 | |
| Oggi h: 05:55 | Foschia | 21 | 20 | 94 | 1015 | 5 | N 0 | |
| Oggi h: 05:43 | Foschia | 21 | 20 | 94 | 1015 | 6 | N 0 | |
| Oggi h: 05:32 | Pioggia Foschia | 21 | 20 | 94 | 1016 | 8 | N 0 | |
| Oggi h: 04:55 | Foschia | 21 | 20 | 94 | 1016 | 8 | N 0 | |
| Oggi h: 03:55 | Foschia | 21 | 20 | 94 | 1016 | 10 | N 0 | |
| Oggi h: 02:55 | Foschia | 21 | 20 | 94 | 1016 | 10 | N 0 | |
| Oggi h: 01:55 | Foschia | 21 | 20 | 94 | 1017 | 5 | N 0 | |
| Oggi h: 00:55 | Foschia | 21 | 20 | 94 | 1017 | 10 | N 0 | |
| Ieri h: 23:55 | Coperto | 21 | 21 | 100 | 1017 | 11 | N 0 | |
| Ieri h: 23:22 | Coperto | 22 | 21 | 94 | 1017 | 10 | N 0 | |
| Ieri h: 22:55 | Pioggia | 22 | 21 | 94 | 1018 | 13 | N 5.5 | |
| Ieri h: 22:30 | Pioggia | 23 | 20 | 83 | 1018 | 10 | N 0 | |
| Ieri h: 22:24 | Coperto | 23 | 20 | 83 | 1018 | 10 | N 0 | |
| Ieri h: 22:11 | Pioggia | 23 | 20 | 83 | 1018 | 10 | N 0 | |
| Ieri h: 21:55 | Pioggia nelle vicinanze | 23 | 20 | 83 | 1018 | 11 | N 0 | |
| Ieri h: 20:55 | Pioggia nelle vicinanze | 22 | 20 | 88 | 1017 | 11 | N 0 | |
| Ieri h: 19:55 | Pioggia nelle vicinanze | 23 | 20 | 83 | 1017 | 11 | N 0 | |
| Ieri h: 18:55 | Molto Nuvoloso | 24 | 21 | 83 | 1017 | 10 | N 0 | |
| Ieri h: 17:55 | Molto Nuvoloso | 26 | 21 | 73 | 1017 | 10 | N 0 | |
| Ieri h: 16:55 | Molto Nuvoloso | 25 | 20 | 73 | 1018 | 10 | N 0 | |
| Ieri h: 15:57 | Molto Nuvoloso | 25 | 20 | 73 | 1018 | 10 | E 7.4 | |
| Ieri h: 14:55 | Coperto | 25 | 20 | 73 | 1019 | 10 | N 5.5 | |



